Time;durP1;ratioP1;P1;durP2;ratioP2;P2;SDS_P1;SDS_P2;PMS_P1;PMS_P2;Temp;Humidity;BMP_temperature;BMP_pressure;BME280_temperature;BME280_humidity;BME280_pressure;Samples;Min_cycle;Max_cycle;Signal;HPM_P1;HPM_P2
2023/03/23 00:02:26;;;;;;;14.38;10.32;;;11.90;99.90;;;;;;5053771;28;20072;-68
2023/03/23 00:04:53;;;;;;;15.10;10.75;;;11.90;99.90;;;;;;5038929;28;20024;-68
2023/03/23 00:07:21;;;;;;;17.77;11.50;;;11.90;99.90;;;;;;5052819;28;20430;-68
2023/03/23 00:09:53;;;;;;;14.38;8.75;;;11.90;99.90;;;;;;5045453;28;20036;-68
2023/03/23 00:12:33;;;;;;;15.32;9.93;;;11.90;99.90;;;;;;5053014;28;20029;-68
2023/03/23 00:15:07;;;;;;;14.88;9.95;;;12.00;99.90;;;;;;5047053;28;20048;-68
2023/03/23 00:17:34;;;;;;;12.65;9.30;;;12.00;99.90;;;;;;5052909;28;20041;-68
2023/03/23 00:20:00;;;;;;;13.07;8.55;;;12.00;99.90;;;;;;5053415;28;20492;-68
2023/03/23 00:22:28;;;;;;;16.77;9.00;;;12.00;99.90;;;;;;5034126;28;20049;-68
2023/03/23 00:24:53;;;;;;;11.57;9.18;;;12.00;99.90;;;;;;5035129;28;20181;-68
2023/03/23 00:27:21;;;;;;;15.05;9.20;;;12.00;99.90;;;;;;5053110;28;20608;-68
2023/03/23 00:29:52;;;;;;;11.88;7.85;;;11.90;99.90;;;;;;5053733;28;20069;-68
2023/03/23 00:32:20;;;;;;;14.10;8.75;;;11.90;99.90;;;;;;5039651;28;20052;-68
2023/03/23 00:34:48;;;;;;;11.70;8.20;;;11.90;99.90;;;;;;5049596;28;20036;-68
2023/03/23 00:37:16;;;;;;;10.90;8.48;;;12.00;99.90;;;;;;5053066;28;20075;-67
2023/03/23 00:39:45;;;;;;;12.10;8.50;;;12.00;99.90;;;;;;5041889;28;20033;-68
2023/03/23 00:42:12;;;;;;;15.10;8.38;;;12.00;99.90;;;;;;5043383;28;20048;-68
2023/03/23 00:44:37;;;;;;;11.55;7.35;;;11.90;99.90;;;;;;5050449;28;20049;-68
2023/03/23 00:47:03;;;;;;;11.55;7.30;;;11.90;99.90;;;;;;5048913;28;20049;-68
2023/03/23 00:49:29;;;;;;;10.90;6.03;;;12.00;99.90;;;;;;5044888;28;20036;-68
2023/03/23 00:51:57;;;;;;;9.43;5.70;;;12.10;99.90;;;;;;5052007;28;20410;-68
2023/03/23 00:54:23;;;;;;;8.30;5.05;;;12.10;99.90;;;;;;5047939;28;20037;-68
2023/03/23 00:56:49;;;;;;;8.00;5.63;;;12.20;99.90;;;;;;5044227;28;20029;-68
2023/03/23 00:59:15;;;;;;;8.23;5.75;;;12.20;99.90;;;;;;5043158;28;20043;-68
2023/03/23 01:01:41;;;;;;;9.15;5.60;;;12.20;99.90;;;;;;5052664;28;20127;-68
2023/03/23 01:04:07;;;;;;;13.50;5.90;;;12.20;99.90;;;;;;5049917;28;20083;-68
2023/03/23 01:06:38;;;;;;;7.30;4.85;;;12.20;99.90;;;;;;5051473;28;20045;-68
2023/03/23 01:09:05;;;;;;;8.23;4.63;;;12.20;99.90;;;;;;5045650;28;20045;-68
2023/03/23 01:11:31;;;;;;;7.50;4.72;;;12.30;99.90;;;;;;5048266;28;20053;-68
2023/03/23 01:13:57;;;;;;;7.38;4.88;;;12.30;99.90;;;;;;5043025;28;20108;-67
2023/03/23 01:16:23;;;;;;;7.80;5.25;;;12.20;99.90;;;;;;5042146;28;20035;-68
2023/03/23 01:18:49;;;;;;;11.75;6.75;;;12.10;99.90;;;;;;5052971;28;20037;-68
2023/03/23 01:21:17;;;;;;;9.60;5.95;;;12.10;99.90;;;;;;5041076;28;20045;-68
2023/03/23 01:23:43;;;;;;;12.63;7.00;;;12.00;99.90;;;;;;5038444;28;20139;-68
2023/03/23 01:26:11;;;;;;;10.00;6.35;;;12.00;99.90;;;;;;5052306;28;20116;-68
2023/03/23 01:28:37;;;;;;;9.40;6.03;;;12.00;99.90;;;;;;5045288;28;20052;-68
2023/03/23 01:31:05;;;;;;;9.75;6.63;;;11.90;99.90;;;;;;5051399;28;20041;-68
2023/03/23 01:33:31;;;;;;;9.07;6.78;;;11.90;99.90;;;;;;5042841;28;20072;-68
2023/03/23 01:35:57;;;;;;;10.13;6.13;;;11.90;99.90;;;;;;5046930;28;20033;-68
2023/03/23 01:38:23;;;;;;;9.18;5.75;;;12.00;99.90;;;;;;5048143;28;20036;-68
2023/03/23 01:40:49;;;;;;;12.13;6.47;;;12.00;99.90;;;;;;5051420;28;20495;-68
2023/03/23 01:43:15;;;;;;;11.10;6.10;;;12.00;99.90;;;;;;5043889;28;20120;-68
2023/03/23 01:45:41;;;;;;;8.60;5.93;;;12.00;99.90;;;;;;5040331;28;20032;-68
2023/03/23 01:48:13;;;;;;;8.93;5.53;;;11.90;99.90;;;;;;5029568;28;20095;-68
2023/03/23 01:50:47;;;;;;;11.32;6.05;;;11.90;99.90;;;;;;5052084;28;20398;-68
2023/03/23 01:53:13;;;;;;;9.30;5.38;;;11.90;99.90;;;;;;5048482;28;20116;-68
2023/03/23 01:55:43;;;;;;;10.23;5.13;;;11.90;99.90;;;;;;5033764;28;20041;-68
2023/03/23 01:58:10;;;;;;;7.75;5.55;;;12.00;99.90;;;;;;5051698;28;20095;-68
2023/03/23 02:00:40;;;;;;;8.68;5.38;;;12.00;99.90;;;;;;5052275;28;20045;-68
2023/03/23 02:03:08;;;;;;;10.60;5.80;;;12.00;99.90;;;;;;5042830;28;20038;-68
2023/03/23 02:05:37;;;;;;;8.23;5.63;;;12.10;99.90;;;;;;5030976;28;20034;-68
2023/03/23 02:08:05;;;;;;;8.27;5.50;;;12.00;99.90;;;;;;5045247;28;20037;-68
2023/03/23 02:10:32;;;;;;;9.48;5.43;;;12.00;99.90;;;;;;5051207;28;20503;-68
2023/03/23 02:13:00;;;;;;;8.38;5.72;;;12.00;99.90;;;;;;5043739;28;20045;-68
2023/03/23 02:15:30;;;;;;;9.18;5.13;;;11.90;99.90;;;;;;5044229;28;20470;-68
2023/03/23 02:18:06;;;;;;;8.55;4.97;;;11.90;99.90;;;;;;5050844;28;20083;-67
2023/03/23 02:20:51;;;;;;;9.43;5.10;;;11.80;99.90;;;;;;5032144;28;20384;-67
2023/03/23 02:23:30;;;;;;;10.32;5.10;;;11.90;99.90;;;;;;5017493;28;20050;-67
2023/03/23 02:26:32;;;;;;;9.40;6.18;;;11.80;99.90;;;;;;5039381;28;20415;-68
2023/03/23 02:29:20;;;;;;;8.80;5.10;;;11.90;99.90;;;;;;5029554;28;20040;-68
2023/03/23 02:32:11;;;;;;;11.32;5.75;;;11.90;99.90;;;;;;5034111;28;20052;-68
2023/03/23 02:34:51;;;;;;;8.52;5.40;;;12.00;99.90;;;;;;5041835;28;20045;-68
2023/03/23 02:37:27;;;;;;;8.35;5.25;;;11.90;99.90;;;;;;5053263;28;20048;-68
2023/03/23 02:40:09;;;;;;;9.70;5.25;;;11.90;99.90;;;;;;5034619;28;20373;-67
2023/03/23 02:42:39;;;;;;;8.32;5.15;;;11.80;99.90;;;;;;5034199;28;20095;-68
2023/03/23 02:45:08;;;;;;;9.60;5.97;;;11.80;99.90;;;;;;5038635;28;20033;-68
2023/03/23 02:47:37;;;;;;;8.38;5.55;;;11.80;99.90;;;;;;5052388;28;20044;-68
2023/03/23 02:50:07;;;;;;;9.38;5.72;;;11.80;99.90;;;;;;5054689;28;20049;-68
2023/03/23 02:52:34;;;;;;;9.18;5.78;;;11.80;99.90;;;;;;5045969;28;20041;-68
2023/03/23 02:55:01;;;;;;;7.50;5.30;;;11.80;99.90;;;;;;5049919;28;20033;-68
2023/03/23 02:57:28;;;;;;;9.27;5.45;;;11.80;99.90;;;;;;5053752;28;20041;-68
2023/03/23 02:59:54;;;;;;;9.07;5.80;;;11.80;99.90;;;;;;5049903;28;20048;-68
2023/03/23 03:02:40;;;;;;;11.45;5.85;;;11.90;99.90;;;;;;5032153;28;20037;-68
2023/03/23 03:05:34;;;;;;;6.70;4.70;;;11.90;99.90;;;;;;5039959;28;20045;-68
2023/03/23 03:08:13;;;;;;;8.23;5.18;;;12.00;99.90;;;;;;5023994;28;20044;-68
2023/03/23 03:11:01;;;;;;;7.50;5.35;;;12.00;99.90;;;;;;5053846;28;20040;-68
2023/03/23 03:13:41;;;;;;;8.93;5.30;;;12.00;99.90;;;;;;5053627;28;20036;-67
2023/03/23 03:16:10;;;;;;;9.65;5.43;;;11.90;99.90;;;;;;5041317;28;20041;-68
2023/03/23 03:18:42;;;;;;;7.50;4.72;;;12.00;99.90;;;;;;5052219;28;20037;-68
2023/03/23 03:21:12;;;;;;;8.60;5.68;;;12.00;99.90;;;;;;5051176;28;20044;-68
2023/03/23 03:23:42;;;;;;;8.52;4.97;;;12.00;99.90;;;;;;5046742;28;20107;-67
2023/03/23 03:26:11;;;;;;;7.35;4.80;;;12.00;99.90;;;;;;5053812;28;20037;-68
2023/03/23 03:28:37;;;;;;;7.43;4.97;;;12.00;99.90;;;;;;5036627;28;20056;-67
2023/03/23 03:31:05;;;;;;;7.07;5.22;;;12.00;99.90;;;;;;5044944;28;20059;-68
2023/03/23 03:33:33;;;;;;;7.95;5.15;;;12.10;99.90;;;;;;5041733;28;20507;-68
2023/03/23 03:36:02;;;;;;;8.35;5.32;;;12.10;99.90;;;;;;5052962;28;20094;-68
2023/03/23 03:38:27;;;;;;;8.38;5.60;;;12.20;99.90;;;;;;5043049;28;20064;-68
2023/03/23 03:40:54;;;;;;;7.80;5.40;;;12.10;99.90;;;;;;5043610;28;20415;-68
2023/03/23 03:43:20;;;;;;;8.90;5.53;;;12.10;99.90;;;;;;5053650;28;20056;-68
2023/03/23 03:45:46;;;;;;;14.57;5.90;;;12.20;99.90;;;;;;5053940;28;20041;-68
2023/03/23 03:48:11;;;;;;;9.80;5.88;;;12.20;99.90;;;;;;5043561;28;20120;-68
2023/03/23 03:50:37;;;;;;;6.88;4.93;;;12.20;99.90;;;;;;5049251;28;20037;-68
2023/03/23 03:53:02;;;;;;;8.07;5.45;;;12.20;99.90;;;;;;5053671;28;20511;-68
2023/03/23 03:55:28;;;;;;;9.45;5.90;;;12.20;99.90;;;;;;5049897;28;20040;-68
2023/03/23 03:57:59;;;;;;;9.50;5.90;;;12.20;99.90;;;;;;5045935;28;20029;-68
2023/03/23 04:00:25;;;;;;;9.27;5.38;;;12.20;99.90;;;;;;5044112;28;20048;-68
2023/03/23 04:02:53;;;;;;;8.90;5.63;;;12.20;99.90;;;;;;5036206;28;20041;-68
2023/03/23 04:05:20;;;;;;;8.93;5.75;;;12.20;99.90;;;;;;5050431;28;20037;-68
2023/03/23 04:07:51;;;;;;;7.50;5.55;;;12.30;99.90;;;;;;5053272;28;20040;-68
2023/03/23 04:10:19;;;;;;;8.60;5.63;;;12.20;99.90;;;;;;5052697;28;20407;-68
2023/03/23 04:12:45;;;;;;;7.20;5.68;;;12.20;99.90;;;;;;5043304;28;20048;-67
2023/03/23 04:15:10;;;;;;;8.13;5.90;;;12.20;99.90;;;;;;5045200;28;20029;-68
2023/03/23 04:17:36;;;;;;;10.48;5.85;;;12.10;99.90;;;;;;5052803;28;20043;-68
2023/03/23 04:20:17;;;;;;;9.05;6.60;;;12.20;99.90;;;;;;5053011;28;20032;-67
2023/03/23 04:22:44;;;;;;;8.60;5.85;;;12.20;99.90;;;;;;5033229;28;20079;-68
2023/03/23 04:25:11;;;;;;;9.43;6.60;;;12.20;99.90;;;;;;5053766;28;20615;-68
2023/03/23 04:27:38;;;;;;;8.82;6.28;;;12.20;99.90;;;;;;5053135;28;20043;-68
2023/03/23 04:30:06;;;;;;;10.82;6.60;;;12.20;99.90;;;;;;5044600;28;20037;-68
2023/03/23 04:32:31;;;;;;;9.90;6.47;;;12.30;99.90;;;;;;5048779;28;20146;-68
2023/03/23 04:35:01;;;;;;;9.55;5.97;;;12.30;99.90;;;;;;5049451;28;20450;-68
2023/03/23 04:37:34;;;;;;;8.50;5.80;;;12.30;99.90;;;;;;5052728;28;20040;-68
2023/03/23 04:40:00;;;;;;;7.95;6.18;;;12.30;99.90;;;;;;5053528;28;20039;-67
2023/03/23 04:42:28;;;;;;;9.00;5.75;;;12.30;99.90;;;;;;5049170;28;20033;-68
2023/03/23 04:44:55;;;;;;;11.48;5.70;;;12.30;99.90;;;;;;5039620;28;20178;-68
2023/03/23 04:47:21;;;;;;;9.20;6.22;;;12.30;99.90;;;;;;5023567;28;20037;-67
2023/03/23 04:49:47;;;;;;;8.43;5.97;;;12.20;99.90;;;;;;5045112;28;20041;-68
2023/03/23 04:52:13;;;;;;;10.18;5.97;;;12.20;99.90;;;;;;5053061;28;20029;-68
2023/03/23 04:54:39;;;;;;;11.85;6.32;;;12.30;99.90;;;;;;5045337;28;20041;-68
2023/03/23 04:57:05;;;;;;;8.52;5.05;;;12.30;99.90;;;;;;5050839;28;20406;-68
2023/03/23 04:59:30;;;;;;;11.40;5.43;;;12.20;99.90;;;;;;5048235;28;20033;-68
2023/03/23 05:01:57;;;;;;;8.70;5.45;;;12.30;99.90;;;;;;5043629;28;20122;-67
2023/03/23 05:04:24;;;;;;;9.30;5.80;;;12.30;99.90;;;;;;5049056;28;20041;-67
2023/03/23 05:06:51;;;;;;;9.52;5.55;;;12.20;99.90;;;;;;5052723;28;20044;-68
2023/03/23 05:09:17;;;;;;;7.80;5.25;;;12.30;99.90;;;;;;5049176;28;20119;-68
2023/03/23 05:11:42;;;;;;;10.52;5.47;;;12.40;99.90;;;;;;5042662;28;20105;-68
2023/03/23 05:14:08;;;;;;;9.73;5.30;;;12.40;99.90;;;;;;5052873;28;20464;-67
2023/03/23 05:16:36;;;;;;;8.25;5.47;;;12.40;99.90;;;;;;5053177;28;20041;-67
2023/03/23 05:19:02;;;;;;;9.15;5.40;;;12.40;99.90;;;;;;5034693;28;20033;-68
2023/03/23 05:21:28;;;;;;;7.22;4.75;;;12.40;99.90;;;;;;5049524;28;20540;-68
2023/03/23 05:23:56;;;;;;;9.02;6.07;;;12.20;99.90;;;;;;5052006;28;20052;-68
2023/03/23 05:26:23;;;;;;;8.90;5.93;;;12.10;99.90;;;;;;5045750;28;20080;-67
2023/03/23 05:28:52;;;;;;;9.27;6.03;;;12.00;99.90;;;;;;5044208;28;20043;-68
2023/03/23 05:31:18;;;;;;;8.45;5.15;;;11.80;99.90;;;;;;5052247;28;20037;-68
2023/03/23 05:33:45;;;;;;;11.68;5.75;;;11.80;99.90;;;;;;5052588;28;20067;-68
2023/03/23 05:36:13;;;;;;;11.57;5.78;;;11.80;99.90;;;;;;5028254;28;20403;-68
2023/03/23 05:38:49;;;;;;;9.98;5.30;;;11.70;99.90;;;;;;5041319;28;20033;-68
2023/03/23 05:41:15;;;;;;;9.27;5.18;;;11.70;99.90;;;;;;5052325;28;20128;-68
2023/03/23 05:43:41;;;;;;;6.80;4.35;;;11.60;99.90;;;;;;5042935;28;20059;-68
2023/03/23 05:46:08;;;;;;;11.07;4.75;;;11.60;99.90;;;;;;5035761;28;20041;-68
2023/03/23 05:48:34;;;;;;;8.88;4.10;;;11.50;99.90;;;;;;5046907;28;20048;-68
2023/03/23 05:51:00;;;;;;;9.60;4.45;;;11.50;99.90;;;;;;5044477;28;20049;-68
2023/03/23 05:53:26;;;;;;;6.90;4.05;;;11.40;99.90;;;;;;5042008;28;20036;-68
2023/03/23 05:55:52;;;;;;;8.38;3.95;;;11.30;99.90;;;;;;5045284;28;20028;-68
2023/03/23 05:58:18;;;;;;;7.85;3.88;;;11.30;99.90;;;;;;5052479;28;20502;-68
2023/03/23 06:00:45;;;;;;;9.73;3.50;;;11.30;99.90;;;;;;5036701;28;20053;-67
2023/03/23 06:03:11;;;;;;;11.20;3.90;;;11.30;99.90;;;;;;5047034;28;20052;-67
2023/03/23 06:05:52;;;;;;;9.60;3.53;;;11.20;99.90;;;;;;5042600;28;20044;-68
2023/03/23 06:08:20;;;;;;;9.70;3.40;;;11.20;99.90;;;;;;5048156;28;20094;-69
2023/03/23 06:10:49;;;;;;;5.28;2.88;;;11.20;99.90;;;;;;5033295;28;20036;-67
2023/03/23 06:13:15;;;;;;;10.57;3.88;;;11.20;99.90;;;;;;5050770;28;20033;-67
2023/03/23 06:15:40;;;;;;;7.53;3.45;;;11.20;99.90;;;;;;5040587;28;20130;-67
2023/03/23 06:18:07;;;;;;;9.43;3.53;;;11.20;99.90;;;;;;5050542;28;20449;-67
2023/03/23 06:20:32;;;;;;;7.78;3.25;;;11.20;99.90;;;;;;5049554;28;20557;-70
2023/03/23 06:22:58;;;;;;;9.65;4.03;;;11.20;99.90;;;;;;5046629;28;20068;-67
2023/03/23 06:25:24;;;;;;;8.88;3.78;;;11.20;99.90;;;;;;5052684;28;20427;-67
2023/03/23 06:27:51;;;;;;;10.30;3.58;;;11.30;99.90;;;;;;5037591;28;20094;-68
2023/03/23 06:30:18;;;;;;;9.82;4.20;;;11.30;99.90;;;;;;5030396;28;20032;-68
2023/03/23 06:32:46;;;;;;;12.70;4.28;;;11.40;99.90;;;;;;5051763;28;20056;-68
2023/03/23 06:35:12;;;;;;;10.25;4.30;;;11.50;99.90;;;;;;5039531;28;20029;-68
2023/03/23 06:37:40;;;;;;;11.60;4.45;;;11.50;99.90;;;;;;5049327;28;20576;-68
2023/03/23 06:40:07;;;;;;;12.68;4.45;;;11.60;99.90;;;;;;5043789;28;20029;-67
2023/03/23 06:42:33;;;;;;;11.35;4.38;;;11.60;99.90;;;;;;5041370;28;20037;-68
2023/03/23 06:45:00;;;;;;;10.30;4.15;;;11.60;99.90;;;;;;5054187;28;20037;-68
2023/03/23 06:47:29;;;;;;;14.45;4.47;;;11.70;99.90;;;;;;5041873;28;20029;-68
2023/03/23 06:49:55;;;;;;;13.35;4.45;;;11.70;99.90;;;;;;5052710;28;20044;-67
2023/03/23 06:52:22;;;;;;;11.55;4.43;;;11.70;99.90;;;;;;5034274;28;20049;-67
2023/03/23 06:54:51;;;;;;;13.27;4.68;;;11.70;99.90;;;;;;5029739;28;20048;-68
2023/03/23 06:57:18;;;;;;;16.75;4.53;;;11.80;99.90;;;;;;5049621;28;20044;-67
2023/03/23 06:59:44;;;;;;;12.00;4.10;;;11.80;99.90;;;;;;5052874;28;20037;-67
2023/03/23 07:02:11;;;;;;;16.05;4.82;;;11.80;99.90;;;;;;5035009;28;20048;-67
2023/03/23 07:04:40;;;;;;;12.45;4.40;;;11.80;99.90;;;;;;5043318;28;20033;-67
2023/03/23 07:07:10;;;;;;;15.63;4.45;;;11.80;99.90;;;;;;5051221;28;20035;-67
2023/03/23 07:09:36;;;;;;;12.23;4.68;;;11.80;99.90;;;;;;5030249;28;20088;-68
2023/03/23 07:12:02;;;;;;;7.80;4.35;;;11.80;99.90;;;;;;5028277;28;20582;-67
2023/03/23 07:14:28;;;;;;;12.13;4.38;;;11.80;99.90;;;;;;5050048;28;20037;-67
2023/03/23 07:16:54;;;;;;;12.82;4.18;;;11.80;99.90;;;;;;5053733;28;20044;-67
2023/03/23 07:19:19;;;;;;;10.05;3.58;;;11.80;99.90;;;;;;5050731;28;20095;-67
2023/03/23 07:21:45;;;;;;;11.50;4.13;;;11.80;99.90;;;;;;5045136;28;20068;-67
2023/03/23 07:24:13;;;;;;;12.88;4.20;;;11.80;99.90;;;;;;5044170;28;20041;-67
2023/03/23 07:26:42;;;;;;;14.50;3.90;;;11.70;99.90;;;;;;5053076;28;20415;-67
2023/03/23 07:29:09;;;;;;;11.70;4.15;;;11.80;99.90;;;;;;5040355;28;20511;-67
2023/03/23 07:31:35;;;;;;;10.63;3.63;;;11.80;99.90;;;;;;5035893;28;20068;-67
2023/03/23 07:34:01;;;;;;;8.10;3.53;;;11.80;99.90;;;;;;5053424;28;20479;-67
2023/03/23 07:36:27;;;;;;;13.93;3.50;;;11.80;99.90;;;;;;5061950;22;20414;-67
2023/03/23 07:38:52;;;;;;;10.23;3.50;;;11.90;99.90;;;;;;5029848;28;20086;-67
2023/03/23 07:41:19;;;;;;;12.98;4.07;;;12.00;99.90;;;;;;5045598;28;20551;-67
2023/03/23 07:43:45;;;;;;;11.18;3.35;;;12.00;99.90;;;;;;5030515;28;20060;-67
2023/03/23 07:46:11;;;;;;;15.73;3.72;;;12.10;99.90;;;;;;5020203;28;20491;-67
2023/03/23 07:48:37;;;;;;;13.88;3.80;;;12.10;99.90;;;;;;5044570;28;20391;-68
2023/03/23 07:51:03;;;;;;;12.93;3.90;;;12.20;99.90;;;;;;5043375;28;20478;-67
2023/03/23 07:53:29;;;;;;;11.95;3.70;;;12.20;99.90;;;;;;5047769;28;20045;-67
2023/03/23 07:55:54;;;;;;;12.35;3.95;;;12.20;99.90;;;;;;5047674;28;20028;-68
2023/03/23 07:58:20;;;;;;;13.77;4.30;;;12.30;99.90;;;;;;5048849;28;20047;-67
2023/03/23 08:00:48;;;;;;;15.40;4.22;;;12.30;99.90;;;;;;5032653;28;20072;-66
2023/03/23 08:03:15;;;;;;;19.52;4.50;;;12.40;99.90;;;;;;5028607;28;20047;-67
2023/03/23 08:05:41;;;;;;;15.20;4.50;;;12.40;99.90;;;;;;5052436;28;20029;-64
2023/03/23 08:08:08;;;;;;;15.25;4.65;;;12.40;99.90;;;;;;5035091;28;20072;-66
2023/03/23 08:10:34;;;;;;;13.02;4.07;;;12.40;99.90;;;;;;5049457;28;20040;-66
2023/03/23 08:13:00;;;;;;;19.15;5.07;;;12.50;99.90;;;;;;5034118;28;20437;-66
2023/03/23 08:15:27;;;;;;;15.63;4.88;;;12.50;99.90;;;;;;5052450;28;20044;-66
2023/03/23 08:17:52;;;;;;;12.82;4.60;;;12.40;99.90;;;;;;5044674;28;20152;-66
2023/03/23 08:20:19;;;;;;;12.05;4.30;;;12.40;99.90;;;;;;5037436;28;20039;-66
2023/03/23 08:22:49;;;;;;;13.57;4.40;;;12.40;99.90;;;;;;5037763;28;20051;-66
2023/03/23 08:25:17;;;;;;;12.27;4.43;;;12.40;99.90;;;;;;5045328;28;20037;-66
2023/03/23 08:27:43;;;;;;;15.93;4.68;;;12.40;99.90;;;;;;5046462;28;20033;-66
2023/03/23 08:30:12;;;;;;;12.63;4.18;;;12.40;99.90;;;;;;5015919;28;20040;-66
2023/03/23 08:32:39;;;;;;;13.40;4.65;;;12.40;99.90;;;;;;5049984;28;20151;-67
2023/03/23 08:35:05;;;;;;;9.93;4.18;;;12.40;99.90;;;;;;5025714;28;20395;-66
2023/03/23 08:37:31;;;;;;;18.30;4.55;;;12.40;99.90;;;;;;5048727;28;20041;-66
2023/03/23 08:39:57;;;;;;;18.70;4.50;;;12.30;99.90;;;;;;5039593;28;20086;-68
2023/03/23 08:42:24;;;;;;;13.98;4.78;;;12.40;99.90;;;;;;5046750;28;20069;-66
2023/03/23 08:44:50;;;;;;;12.60;4.80;;;12.40;99.90;;;;;;5037476;28;20059;-67
2023/03/23 08:47:16;;;;;;;14.85;5.07;;;12.30;99.90;;;;;;5051020;28;20063;-66
2023/03/23 08:49:42;;;;;;;10.70;4.43;;;12.40;99.90;;;;;;5051578;28;20040;-66
2023/03/23 08:52:09;;;;;;;11.80;4.43;;;12.40;99.90;;;;;;5046489;28;20384;-67
2023/03/23 08:54:34;;;;;;;14.30;5.10;;;12.50;99.90;;;;;;5050608;28;20036;-66
2023/03/23 08:57:01;;;;;;;13.02;5.25;;;12.60;99.90;;;;;;5043916;28;20132;-66
2023/03/23 08:59:27;;;;;;;19.23;5.40;;;12.70;99.90;;;;;;5040161;28;20029;-66
2023/03/23 09:01:53;;;;;;;19.17;5.30;;;12.70;99.90;;;;;;5042971;28;20072;-66
2023/03/23 09:04:19;;;;;;;16.35;5.05;;;12.70;99.90;;;;;;5049851;28;20080;-68
2023/03/23 09:06:45;;;;;;;15.50;5.15;;;12.80;99.90;;;;;;5033561;28;20032;-67
2023/03/23 09:09:12;;;;;;;16.50;5.55;;;12.80;99.90;;;;;;5034522;28;20057;-66
2023/03/23 09:11:38;;;;;;;17.02;5.40;;;12.80;99.90;;;;;;5032617;28;20037;-66
2023/03/23 09:14:05;;;;;;;15.38;5.18;;;12.80;99.90;;;;;;5049231;28;20049;-67
2023/03/23 09:16:32;;;;;;;15.80;5.88;;;12.80;99.90;;;;;;5032512;28;20041;-67
2023/03/23 09:18:59;;;;;;;12.52;5.25;;;12.80;99.90;;;;;;5044116;28;20072;-67
2023/03/23 09:21:26;;;;;;;12.38;5.22;;;12.80;99.90;;;;;;5049162;28;20487;-67
2023/03/23 09:23:52;;;;;;;18.55;5.93;;;12.70;99.90;;;;;;5050188;28;20048;-68
2023/03/23 09:26:18;;;;;;;16.60;5.40;;;12.60;99.90;;;;;;5036043;28;20025;-66
2023/03/23 09:28:45;;;;;;;10.98;4.15;;;12.60;99.90;;;;;;5042441;28;20470;-66
2023/03/23 09:31:11;;;;;;;15.82;4.90;;;12.70;99.90;;;;;;5033053;28;20041;-66
2023/03/23 09:33:38;;;;;;;10.98;4.45;;;12.80;99.90;;;;;;5050867;28;20087;-66
2023/03/23 09:36:04;;;;;;;14.20;5.22;;;12.90;99.90;;;;;;5041940;28;20044;-66
2023/03/23 09:38:34;;;;;;;13.10;4.97;;;12.90;99.90;;;;;;5050138;28;20040;-67
2023/03/23 09:41:27;;;;;;;13.55;4.40;;;12.90;99.90;;;;;;5049682;28;20505;-67
2023/03/23 09:43:59;;;;;;;13.07;4.40;;;13.00;99.90;;;;;;5015794;28;20041;-66
2023/03/23 09:46:48;;;;;;;11.52;4.45;;;12.90;99.90;;;;;;5050708;28;20539;-66
2023/03/23 09:49:17;;;;;;;16.83;5.40;;;13.00;99.90;;;;;;5053875;28;20102;-66
2023/03/23 09:51:56;;;;;;;10.05;4.57;;;13.00;99.90;;;;;;5039250;28;20032;-66
2023/03/23 09:54:36;;;;;;;13.98;5.03;;;13.00;99.90;;;;;;5041009;28;20044;-67
2023/03/23 09:57:02;;;;;;;11.48;4.10;;;13.00;99.90;;;;;;5052088;28;20056;-66
2023/03/23 10:00:03;;;;;;;10.50;3.70;;;13.00;99.90;;;;;;5046072;28;20037;-65
2023/03/23 10:02:36;;;;;;;7.63;3.47;;;13.00;99.90;;;;;;5018901;28;20124;-66
2023/03/23 10:05:25;;;;;;;10.35;3.25;;;13.10;99.90;;;;;;5029668;28;20041;-66
2023/03/23 10:07:51;;;;;;;12.75;4.55;;;13.10;99.90;;;;;;5046409;28;20376;-66
2023/03/23 10:10:18;;;;;;;9.65;3.55;;;13.20;99.90;;;;;;5055063;28;20029;-66
2023/03/23 10:12:51;;;;;;;10.75;3.58;;;13.30;99.90;;;;;;5048259;28;20034;-66
2023/03/23 10:15:33;;;;;;;12.52;4.35;;;13.50;99.90;;;;;;5046543;28;20099;-66
2023/03/23 10:18:22;;;;;;;9.68;3.20;;;13.70;99.90;;;;;;5032740;28;20543;-66
2023/03/23 10:20:54;;;;;;;11.13;3.80;;;13.50;99.90;;;;;;5054694;28;20498;-66
2023/03/23 10:23:20;;;;;;;6.88;3.38;;;13.70;99.90;;;;;;5054683;28;20037;-65
2023/03/23 10:25:53;;;;;;;11.23;3.60;;;13.80;99.90;;;;;;5040497;28;20086;-66
2023/03/23 10:28:23;;;;;;;9.82;3.42;;;13.70;99.90;;;;;;5038037;28;20041;-66
2023/03/23 10:30:55;;;;;;;9.52;3.38;;;14.10;99.90;;;;;;5054438;28;20673;-66
2023/03/23 10:33:33;;;;;;;10.48;3.20;;;14.20;99.90;;;;;;5038950;28;20079;-66
2023/03/23 10:36:14;;;;;;;9.57;3.10;;;14.30;99.90;;;;;;5046517;28;20041;-65
2023/03/23 10:38:43;;;;;;;;;;;14.20;99.90;;;;;;5051549;28;20040;-65
2023/03/23 10:41:16;;;;;;;9.95;3.58;;;14.10;99.90;;;;;;5053142;28;19923;-66
2023/03/23 10:43:43;;;;;;;14.00;3.30;;;14.00;99.90;;;;;;5022968;28;20591;-66
2023/03/23 10:46:39;;;;;;;10.77;3.30;;;13.90;99.90;;;;;;5048481;28;20083;-66
2023/03/23 10:49:11;;;;;;;10.75;3.08;;;14.20;99.90;;;;;;5031683;28;20396;-66
2023/03/23 10:51:41;;;;;;;9.07;2.90;;;14.30;99.90;;;;;;5039405;28;20034;-66
2023/03/23 10:54:07;;;;;;;11.75;3.38;;;14.40;99.90;;;;;;5054557;28;20130;-66
2023/03/23 10:56:43;;;;;;;9.77;2.63;;;14.50;99.90;;;;;;5053870;28;20073;-66
2023/03/23 10:59:21;;;;;;;10.02;3.05;;;14.30;99.90;;;;;;5045265;28;20045;-66
2023/03/23 11:01:54;;;;;;;10.85;2.78;;;14.40;99.90;;;;;;5041493;28;20056;-67
2023/03/23 11:04:22;;;;;;;9.68;2.70;;;14.40;99.90;;;;;;5050167;28;20032;-66
2023/03/23 11:06:52;;;;;;;10.50;3.15;;;14.50;99.90;;;;;;5049582;28;20083;-66
2023/03/23 11:09:33;;;;;;;9.27;2.85;;;14.60;99.90;;;;;;5040458;28;20064;-66
2023/03/23 11:11:58;;;;;;;7.82;2.75;;;14.40;99.90;;;;;;5046920;28;20124;-66
2023/03/23 11:14:28;;;;;;;10.70;2.97;;;14.30;99.90;;;;;;5053394;28;20124;-66
2023/03/23 11:16:56;;;;;;;10.10;2.83;;;14.40;99.90;;;;;;5021195;28;20037;-66
2023/03/23 11:19:28;;;;;;;15.20;3.50;;;14.50;99.90;;;;;;5041460;28;20037;-66
2023/03/23 11:21:59;;;;;;;11.82;3.00;;;14.80;99.90;;;;;;5040906;28;20510;-66
2023/03/23 11:24:28;;;;;;;8.73;2.85;;;15.00;99.90;;;;;;5033764;28;20095;-65
2023/03/23 11:26:57;;;;;;;9.57;3.05;;;15.20;99.90;;;;;;5037929;28;20036;-66
2023/03/23 11:29:26;;;;;;;7.63;2.80;;;15.10;99.90;;;;;;5044485;28;20076;-66
2023/03/23 11:32:00;;;;;;;8.70;2.65;;;15.20;99.90;;;;;;5050718;28;20051;-66
2023/03/23 11:34:42;;;;;;;8.77;3.00;;;15.30;99.90;;;;;;5053300;28;20067;-66
2023/03/23 11:37:42;;;;;;;10.88;2.90;;;15.50;99.90;;;;;;5052767;28;20072;-66
2023/03/23 11:40:10;;;;;;;10.13;3.42;;;14.90;99.90;;;;;;5017293;28;20487;-66
2023/03/23 11:42:44;;;;;;;6.30;2.83;;;14.40;99.90;;;;;;5041606;28;20045;-65
2023/03/23 11:45:33;;;;;;;12.65;3.28;;;14.10;99.90;;;;;;5052962;28;20042;-66
2023/03/23 11:48:24;;;;;;;9.93;2.90;;;14.00;99.90;;;;;;5052310;28;20163;-66
2023/03/23 11:51:12;;;;;;;9.20;3.00;;;13.80;99.90;;;;;;5044370;28;20072;-66
2023/03/23 11:53:52;;;;;;;10.73;3.00;;;13.70;99.90;;;;;;5050800;28;20048;-66
2023/03/23 11:56:38;;;;;;;10.27;2.97;;;13.60;99.90;;;;;;5032926;28;20044;-66
2023/03/23 11:59:13;;;;;;;7.93;3.47;;;14.10;99.90;;;;;;5044712;28;20065;-66
2023/03/23 12:01:43;;;;;;;11.15;2.83;;;14.50;99.90;;;;;;5032488;28;20048;-66
2023/03/23 12:04:28;;;;;;;11.50;3.00;;;14.70;99.90;;;;;;5052991;28;20040;-65
2023/03/23 12:07:24;;;;;;;11.80;3.08;;;14.80;99.90;;;;;;5048427;28;20048;-66
2023/03/23 12:10:26;;;;;;;10.48;3.10;;;15.10;99.90;;;;;;5049498;28;20044;-65
2023/03/23 12:13:25;;;;;;;13.40;3.30;;;15.20;99.90;;;;;;5051753;28;20052;-66
2023/03/23 12:16:28;;;;;;;6.25;2.75;;;15.20;99.90;;;;;;5037288;28;20562;-65
2023/03/23 12:19:18;;;;;;;12.60;3.15;;;15.30;99.90;;;;;;5003522;28;20163;-66
2023/03/23 12:22:03;;;;;;;12.10;3.30;;;15.30;99.90;;;;;;5051022;28;20052;-65
2023/03/23 12:24:43;;;;;;;10.63;2.95;;;15.40;99.90;;;;;;5052066;28;20556;-66
2023/03/23 12:27:29;;;;;;;9.40;2.50;;;15.60;99.90;;;;;;5039788;28;20075;-66
2023/03/23 12:30:30;;;;;;;13.98;3.10;;;15.70;99.90;;;;;;5044634;28;20407;-66
2023/03/23 12:33:03;;;;;;;11.48;2.53;;;15.70;99.90;;;;;;5047805;28;20044;-66
2023/03/23 12:35:55;;;;;;;10.02;2.70;;;15.70;99.90;;;;;;5051250;28;20373;-66
2023/03/23 12:38:46;;;;;;;8.20;2.60;;;15.50;99.90;;;;;;5051973;28;20037;-66
2023/03/23 12:41:49;;;;;;;12.05;2.80;;;15.30;99.90;;;;;;5040414;28;20484;-66
2023/03/23 12:44:20;;;;;;;11.40;2.45;;;15.00;99.90;;;;;;5047620;28;20073;-65
2023/03/23 12:47:18;;;;;;;9.45;2.80;;;15.00;99.90;;;;;;5040843;28;20135;-66
2023/03/23 12:49:54;;;;;;;12.73;3.20;;;14.90;99.90;;;;;;5040779;28;20053;-66
2023/03/23 12:52:32;;;;;;;11.52;2.70;;;15.20;99.90;;;;;;5051098;28;20052;-66
2023/03/23 12:55:09;;;;;;;9.68;2.78;;;15.30;99.90;;;;;;5048631;28;20051;-66
2023/03/23 12:57:59;;;;;;;13.48;2.70;;;15.20;99.90;;;;;;5042445;28;20430;-66
2023/03/23 13:00:32;;;;;;;11.13;2.73;;;15.40;99.90;;;;;;5048199;28;20068;-65